sensor_id;sensor_type;location;lat;lon;timestamp;pressure;altitude;pressure_sealevel;temperature;humidity
71392;BME280;59205;50.610;12.638;2022-07-15T00:00:00;95979.00;;;12.11;70.87
71392;BME280;59205;50.610;12.638;2022-07-15T00:02:26;95978.22;;;12.20;71.09
71392;BME280;59205;50.610;12.638;2022-07-15T00:04:51;95979.09;;;11.93;71.03
71392;BME280;59205;50.610;12.638;2022-07-15T00:07:17;95981.34;;;11.95;71.06
71392;BME280;59205;50.610;12.638;2022-07-15T00:09:42;95981.63;;;11.97;71.08
71392;BME280;59205;50.610;12.638;2022-07-15T00:12:27;95964.75;;;12.02;71.36
71392;BME280;59205;50.610;12.638;2022-07-15T00:14:52;95984.00;;;12.13;71.31
71392;BME280;59205;50.610;12.638;2022-07-15T00:17:18;95970.28;;;12.07;71.16
71392;BME280;59205;50.610;12.638;2022-07-15T00:19:43;95968.78;;;12.06;71.48
71392;BME280;59205;50.610;12.638;2022-07-15T00:22:09;95971.34;;;12.01;71.54
71392;BME280;59205;50.610;12.638;2022-07-15T00:24:35;95972.56;;;12.00;71.77
71392;BME280;59205;50.610;12.638;2022-07-15T00:27:00;95973.53;;;11.88;71.97
71392;BME280;59205;50.610;12.638;2022-07-15T00:29:28;95979.69;;;11.97;72.00
71392;BME280;59205;50.610;12.638;2022-07-15T00:31:53;95972.19;;;11.84;72.55
71392;BME280;59205;50.610;12.638;2022-07-15T00:34:19;95965.88;;;11.78;72.84
71392;BME280;59205;50.610;12.638;2022-07-15T00:36:45;95972.97;;;11.75;73.12
71392;BME280;59205;50.610;12.638;2022-07-15T00:39:10;95964.53;;;11.73;73.13
71392;BME280;59205;50.610;12.638;2022-07-15T00:41:37;95969.94;;;11.73;73.36
71392;BME280;59205;50.610;12.638;2022-07-15T00:44:03;95975.09;;;11.71;73.63
71392;BME280;59205;50.610;12.638;2022-07-15T00:46:29;95975.13;;;11.62;74.23
71392;BME280;59205;50.610;12.638;2022-07-15T00:48:59;95974.06;;;11.51;73.93
71392;BME280;59205;50.610;12.638;2022-07-15T00:51:25;95975.13;;;11.44;74.65
71392;BME280;59205;50.610;12.638;2022-07-15T00:53:51;95974.94;;;11.48;74.58
71392;BME280;59205;50.610;12.638;2022-07-15T00:56:17;95973.75;;;11.40;75.04
71392;BME280;59205;50.610;12.638;2022-07-15T00:58:47;95969.09;;;11.31;75.81
71392;BME280;59205;50.610;12.638;2022-07-15T01:01:14;95969.53;;;11.39;75.54
71392;BME280;59205;50.610;12.638;2022-07-15T01:03:46;95973.34;;;11.23;75.64
71392;BME280;59205;50.610;12.638;2022-07-15T01:06:12;95970.75;;;11.20;76.03
71392;BME280;59205;50.610;12.638;2022-07-15T01:08:38;95971.81;;;11.22;76.03
71392;BME280;59205;50.610;12.638;2022-07-15T01:11:04;95978.91;;;11.20;76.06
71392;BME280;59205;50.610;12.638;2022-07-15T01:13:30;95976.34;;;11.16;76.38
71392;BME280;59205;50.610;12.638;2022-07-15T01:15:56;95978.75;;;11.14;76.19
71392;BME280;59205;50.610;12.638;2022-07-15T01:18:21;95977.25;;;11.13;76.48
71392;BME280;59205;50.610;12.638;2022-07-15T01:20:47;95977.56;;;11.06;76.89
71392;BME280;59205;50.610;12.638;2022-07-15T01:23:16;95982.38;;;11.02;77.19
71392;BME280;59205;50.610;12.638;2022-07-15T01:25:42;95985.22;;;10.99;77.62
71392;BME280;59205;50.610;12.638;2022-07-15T01:28:10;95988.69;;;10.81;78.36
71392;BME280;59205;50.610;12.638;2022-07-15T01:30:37;95993.97;;;10.85;78.33
71392;BME280;59205;50.610;12.638;2022-07-15T01:33:03;95993.03;;;10.79;78.62
71392;BME280;59205;50.610;12.638;2022-07-15T01:35:28;95996.50;;;10.70;79.05
71392;BME280;59205;50.610;12.638;2022-07-15T01:37:54;95994.97;;;10.60;79.50
71392;BME280;59205;50.610;12.638;2022-07-15T01:40:20;95997.41;;;10.58;79.54
71392;BME280;59205;50.610;12.638;2022-07-15T01:42:45;95995.13;;;10.57;79.57
71392;BME280;59205;50.610;12.638;2022-07-15T01:45:11;96001.31;;;10.66;79.09
71392;BME280;59205;50.610;12.638;2022-07-15T01:47:47;95999.50;;;10.72;78.48
71392;BME280;59205;50.610;12.638;2022-07-15T01:50:14;96005.88;;;10.78;78.37
71392;BME280;59205;50.610;12.638;2022-07-15T01:52:40;96006.94;;;10.90;77.44
71392;BME280;59205;50.610;12.638;2022-07-15T01:55:06;96002.25;;;10.90;77.04
71392;BME280;59205;50.610;12.638;2022-07-15T01:57:32;96003.44;;;10.80;77.18
71392;BME280;59205;50.610;12.638;2022-07-15T01:59:57;95999.53;;;10.81;77.63
71392;BME280;59205;50.610;12.638;2022-07-15T02:02:23;96000.13;;;10.85;76.83
71392;BME280;59205;50.610;12.638;2022-07-15T02:04:48;96000.75;;;10.89;76.69
71392;BME280;59205;50.610;12.638;2022-07-15T02:07:15;95993.81;;;10.79;76.52
71392;BME280;59205;50.610;12.638;2022-07-15T02:09:40;95995.63;;;10.82;76.82
71392;BME280;59205;50.610;12.638;2022-07-15T02:12:06;95996.06;;;10.72;76.89
71392;BME280;59205;50.610;12.638;2022-07-15T02:14:32;96003.72;;;10.73;77.38
71392;BME280;59205;50.610;12.638;2022-07-15T02:16:59;96007.19;;;10.74;77.14
71392;BME280;59205;50.610;12.638;2022-07-15T02:19:25;96004.19;;;10.72;77.50
71392;BME280;59205;50.610;12.638;2022-07-15T02:21:50;95997.69;;;10.69;77.38
71392;BME280;59205;50.610;12.638;2022-07-15T02:24:16;96007.38;;;10.79;77.10
71392;BME280;59205;50.610;12.638;2022-07-15T02:26:43;96004.19;;;10.81;77.13
71392;BME280;59205;50.610;12.638;2022-07-15T02:29:10;96002.72;;;10.89;76.39
71392;BME280;59205;50.610;12.638;2022-07-15T02:31:35;96009.03;;;10.86;76.97
71392;BME280;59205;50.610;12.638;2022-07-15T02:34:01;95994.28;;;10.87;76.69
71392;BME280;59205;50.610;12.638;2022-07-15T02:36:27;95990.81;;;10.77;77.03
71392;BME280;59205;50.610;12.638;2022-07-15T02:38:52;95992.00;;;10.76;77.41
71392;BME280;59205;50.610;12.638;2022-07-15T02:41:18;95998.00;;;10.71;78.35
71392;BME280;59205;50.610;12.638;2022-07-15T02:43:43;95994.69;;;10.67;78.61
71392;BME280;59205;50.610;12.638;2022-07-15T02:46:10;95995.75;;;10.79;77.59
71392;BME280;59205;50.610;12.638;2022-07-15T02:48:37;95999.38;;;10.76;77.85
71392;BME280;59205;50.610;12.638;2022-07-15T02:51:03;96000.56;;;10.75;77.93
71392;BME280;59205;50.610;12.638;2022-07-15T02:53:28;95996.06;;;10.81;77.21
71392;BME280;59205;50.610;12.638;2022-07-15T02:55:57;95996.38;;;10.92;77.15
71392;BME280;59205;50.610;12.638;2022-07-15T02:58:29;96000.44;;;10.87;77.70
71392;BME280;59205;50.610;12.638;2022-07-15T03:00:55;96001.03;;;10.82;77.31
71392;BME280;59205;50.610;12.638;2022-07-15T03:03:21;96000.13;;;10.76;77.69
71392;BME280;59205;50.610;12.638;2022-07-15T03:05:46;95999.69;;;10.78;77.18
71392;BME280;59205;50.610;12.638;2022-07-15T03:08:12;96006.16;;;10.80;76.68
71392;BME280;59205;50.610;12.638;2022-07-15T03:10:38;95997.13;;;10.74;77.43
71392;BME280;59205;50.610;12.638;2022-07-15T03:13:03;95999.22;;;10.70;76.97
71392;BME280;59205;50.610;12.638;2022-07-15T03:15:29;96003.13;;;10.69;77.71
71392;BME280;59205;50.610;12.638;2022-07-15T03:17:54;96005.06;;;10.60;78.16
71392;BME280;59205;50.610;12.638;2022-07-15T03:20:20;96009.13;;;10.55;77.82
71392;BME280;59205;50.610;12.638;2022-07-15T03:22:45;96003.41;;;10.62;77.97
71392;BME280;59205;50.610;12.638;2022-07-15T03:25:11;96009.75;;;10.59;78.10
71392;BME280;59205;50.610;12.638;2022-07-15T03:27:37;96017.41;;;10.61;78.01
71392;BME280;59205;50.610;12.638;2022-07-15T03:30:03;96021.19;;;10.54;78.44
71392;BME280;59205;50.610;12.638;2022-07-15T03:32:29;96019.53;;;10.66;78.04
71392;BME280;59205;50.610;12.638;2022-07-15T03:34:54;96026.47;;;10.67;77.27
71392;BME280;59205;50.610;12.638;2022-07-15T03:37:22;96026.47;;;10.76;77.04
71392;BME280;59205;50.610;12.638;2022-07-15T03:39:48;96025.41;;;10.73;77.09
71392;BME280;59205;50.610;12.638;2022-07-15T03:42:14;96025.41;;;10.73;77.34
71392;BME280;59205;50.610;12.638;2022-07-15T03:44:39;96027.25;;;10.76;77.11
71392;BME280;59205;50.610;12.638;2022-07-15T03:47:05;96033.72;;;10.79;76.97
71392;BME280;59205;50.610;12.638;2022-07-15T03:49:30;96031.63;;;10.92;76.44
71392;BME280;59205;50.610;12.638;2022-07-15T03:51:56;96037.97;;;10.89;76.10
71392;BME280;59205;50.610;12.638;2022-07-15T03:54:22;96035.72;;;11.05;76.13
71392;BME280;59205;50.610;12.638;2022-07-15T03:56:47;96043.28;;;11.19;75.67
71392;BME280;59205;50.610;12.638;2022-07-15T03:59:17;96045.81;;;11.41;76.06
71392;BME280;59205;50.610;12.638;2022-07-15T04:01:43;96056.69;;;11.32;77.60
71392;BME280;59205;50.610;12.638;2022-07-15T04:04:08;96052.47;;;11.31;77.43
71392;BME280;59205;50.610;12.638;2022-07-15T04:06:34;96054.69;;;11.14;80.07
71392;BME280;59205;50.610;12.638;2022-07-15T04:09:00;96058.44;;;10.90;81.45
71392;BME280;59205;50.610;12.638;2022-07-15T04:11:25;96061.00;;;10.93;81.71
71392;BME280;59205;50.610;12.638;2022-07-15T04:13:50;96067.44;;;10.78;83.24
71392;BME280;59205;50.610;12.638;2022-07-15T04:16:16;96061.41;;;10.74;83.40
71392;BME280;59205;50.610;12.638;2022-07-15T04:18:42;96064.00;;;10.86;82.68
71392;BME280;59205;50.610;12.638;2022-07-15T04:21:07;96066.28;;;10.97;82.31
71392;BME280;59205;50.610;12.638;2022-07-15T04:23:33;96066.41;;;10.84;83.15
71392;BME280;59205;50.610;12.638;2022-07-15T04:26:02;96063.41;;;10.82;83.18
71392;BME280;59205;50.610;12.638;2022-07-15T04:28:27;96076.06;;;10.85;82.73
71392;BME280;59205;50.610;12.638;2022-07-15T04:30:53;96073.69;;;11.05;82.53
71392;BME280;59205;50.610;12.638;2022-07-15T04:33:19;96070.97;;;11.14;82.17
71392;BME280;59205;50.610;12.638;2022-07-15T04:35:48;96078.53;;;11.28;82.63
71392;BME280;59205;50.610;12.638;2022-07-15T04:38:13;96077.34;;;11.47;82.05
71392;BME280;59205;50.610;12.638;2022-07-15T04:40:39;96085.22;;;11.63;80.19
71392;BME280;59205;50.610;12.638;2022-07-15T04:43:05;96090.59;;;11.90;77.85
71392;BME280;59205;50.610;12.638;2022-07-15T04:45:32;96090.59;;;11.90;77.01
71392;BME280;59205;50.610;12.638;2022-07-15T04:47:58;96098.16;;;11.86;77.01
71392;BME280;59205;50.610;12.638;2022-07-15T04:50:24;96095.44;;;11.86;76.86
71392;BME280;59205;50.610;12.638;2022-07-15T04:53:08;96089.72;;;11.84;77.51
71392;BME280;59205;50.610;12.638;2022-07-15T04:55:34;96097.53;;;11.91;78.03
71392;BME280;59205;50.610;12.638;2022-07-15T04:58:00;96097.25;;;11.89;76.61
71392;BME280;59205;50.610;12.638;2022-07-15T05:00:25;96092.41;;;11.93;76.28
71392;BME280;59205;50.610;12.638;2022-07-15T05:02:51;96090.16;;;11.92;78.11
71392;BME280;59205;50.610;12.638;2022-07-15T05:05:17;96092.84;;;12.00;77.52
71392;BME280;59205;50.610;12.638;2022-07-15T05:07:42;96112.59;;;12.10;77.06
71392;BME280;59205;50.610;12.638;2022-07-15T05:10:08;96103.56;;;12.04;76.34
71392;BME280;59205;50.610;12.638;2022-07-15T05:12:35;96114.44;;;12.04;76.62
71392;BME280;59205;50.610;12.638;2022-07-15T05:15:01;96115.63;;;12.12;76.13
71392;BME280;59205;50.610;12.638;2022-07-15T05:17:27;96112.31;;;12.08;76.42
71392;BME280;59205;50.610;12.638;2022-07-15T05:19:52;96108.38;;;12.09;76.15
71392;BME280;59205;50.610;12.638;2022-07-15T05:22:18;96111.25;;;12.14;77.80
71392;BME280;59205;50.610;12.638;2022-07-15T05:24:44;96105.63;;;12.27;76.44
71392;BME280;59205;50.610;12.638;2022-07-15T05:27:09;96116.63;;;12.32;75.22
71392;BME280;59205;50.610;12.638;2022-07-15T05:29:35;96113.16;;;12.32;77.02
71392;BME280;59205;50.610;12.638;2022-07-15T05:32:00;96118.25;;;12.39;77.58
71392;BME280;59205;50.610;12.638;2022-07-15T05:34:26;96115.50;;;12.57;75.19
71392;BME280;59205;50.610;12.638;2022-07-15T05:36:52;96127.97;;;12.22;77.97
71392;BME280;59205;50.610;12.638;2022-07-15T05:39:17;96129.72;;;12.43;77.16
71392;BME280;59205;50.610;12.638;2022-07-15T05:41:42;96125.00;;;12.61;75.93
71392;BME280;59205;50.610;12.638;2022-07-15T05:44:08;96129.09;;;12.57;75.13
71392;BME280;59205;50.610;12.638;2022-07-15T05:46:33;96123.91;;;12.68;74.37
71392;BME280;59205;50.610;12.638;2022-07-15T05:48:59;96127.25;;;12.63;76.88
71392;BME280;59205;50.610;12.638;2022-07-15T05:51:24;96126.59;;;12.77;76.23
71392;BME280;59205;50.610;12.638;2022-07-15T05:53:50;96128.38;;;12.80;76.70
71392;BME280;59205;50.610;12.638;2022-07-15T05:56:15;96130.22;;;12.74;77.16
71392;BME280;59205;50.610;12.638;2022-07-15T05:58:41;96136.31;;;12.60;78.41
71392;BME280;59205;50.610;12.638;2022-07-15T06:01:06;96136.09;;;12.81;76.47
71392;BME280;59205;50.610;12.638;2022-07-15T06:03:32;96131.53;;;13.20;73.27
71392;BME280;59205;50.610;12.638;2022-07-15T06:05:58;96144.94;;;13.93;73.72
71392;BME280;59205;50.610;12.638;2022-07-15T06:08:23;96143.97;;;14.34;70.58
71392;BME280;59205;50.610;12.638;2022-07-15T06:10:49;96140.94;;;13.80;70.98
71392;BME280;59205;50.610;12.638;2022-07-15T06:13:17;96142.56;;;13.86;70.25
71392;BME280;59205;50.610;12.638;2022-07-15T06:15:44;96145.91;;;14.05;68.64
71392;BME280;59205;50.610;12.638;2022-07-15T06:18:10;96145.69;;;14.46;70.91
71392;BME280;59205;50.610;12.638;2022-07-15T06:20:35;96137.50;;;14.46;69.16
71392;BME280;59205;50.610;12.638;2022-07-15T06:23:01;96142.81;;;14.99;67.72
71392;BME280;59205;50.610;12.638;2022-07-15T06:25:27;96147.59;;;15.38;65.92
71392;BME280;59205;50.610;12.638;2022-07-15T06:27:52;96151.47;;;15.86;64.25
71392;BME280;59205;50.610;12.638;2022-07-15T06:30:18;96151.50;;;15.17;65.52
71392;BME280;59205;50.610;12.638;2022-07-15T06:32:44;96142.34;;;15.94;62.91
71392;BME280;59205;50.610;12.638;2022-07-15T06:35:09;96143.38;;;15.37;64.66
71392;BME280;59205;50.610;12.638;2022-07-15T06:37:36;96149.94;;;15.11;66.20
71392;BME280;59205;50.610;12.638;2022-07-15T06:40:02;96155.41;;;15.45;65.19
71392;BME280;59205;50.610;12.638;2022-07-15T06:42:28;96151.34;;;15.06;68.32
71392;BME280;59205;50.610;12.638;2022-07-15T06:44:53;96149.25;;;15.30;66.68
71392;BME280;59205;50.610;12.638;2022-07-15T06:47:19;96144.44;;;14.62;69.03
71392;BME280;59205;50.610;12.638;2022-07-15T06:49:44;96157.63;;;15.12;69.60
71392;BME280;59205;50.610;12.638;2022-07-15T06:52:10;96152.34;;;15.77;66.24
71392;BME280;59205;50.610;12.638;2022-07-15T06:54:35;96153.00;;;15.92;64.19
71392;BME280;59205;50.610;12.638;2022-07-15T06:57:01;96156.78;;;15.95;62.83
71392;BME280;59205;50.610;12.638;2022-07-15T06:59:29;96160.97;;;15.02;65.83
71392;BME280;59205;50.610;12.638;2022-07-15T07:01:54;96166.25;;;17.01;64.74
71392;BME280;59205;50.610;12.638;2022-07-15T07:04:21;96156.44;;;16.33;61.89
71392;BME280;59205;50.610;12.638;2022-07-15T07:06:47;96162.25;;;15.75;64.02
71392;BME280;59205;50.610;12.638;2022-07-15T07:09:13;96164.28;;;16.71;59.88
71392;BME280;59205;50.610;12.638;2022-07-15T07:11:38;96173.72;;;16.70;59.01
71392;BME280;59205;50.610;12.638;2022-07-15T07:14:06;96166.53;;;16.47;60.51
71392;BME280;59205;50.610;12.638;2022-07-15T07:16:32;96160.84;;;16.05;61.53
71392;BME280;59205;50.610;12.638;2022-07-15T07:18:58;96165.69;;;14.87;67.95
71392;BME280;59205;50.610;12.638;2022-07-15T07:21:24;96165.81;;;15.12;68.67
71392;BME280;59205;50.610;12.638;2022-07-15T07:23:49;96170.09;;;14.99;67.92
71392;BME280;59205;50.610;12.638;2022-07-15T07:26:15;96159.63;;;14.97;69.83
71392;BME280;59205;50.610;12.638;2022-07-15T07:28:41;96169.44;;;14.89;68.92
71392;BME280;59205;50.610;12.638;2022-07-15T07:31:08;96173.41;;;14.45;70.15
71392;BME280;59205;50.610;12.638;2022-07-15T07:33:34;96175.47;;;14.79;70.92
71392;BME280;59205;50.610;12.638;2022-07-15T07:36:00;96177.47;;;14.11;70.98
71392;BME280;59205;50.610;12.638;2022-07-15T07:38:25;96173.53;;;14.79;70.27
71392;BME280;59205;50.610;12.638;2022-07-15T07:40:51;96177.59;;;15.72;68.03
71392;BME280;59205;50.610;12.638;2022-07-15T07:43:18;96179.91;;;15.40;66.13
71392;BME280;59205;50.610;12.638;2022-07-15T07:45:45;96171.63;;;15.34;67.24
71392;BME280;59205;50.610;12.638;2022-07-15T07:48:10;96170.22;;;14.90;69.63
71392;BME280;59205;50.610;12.638;2022-07-15T07:50:37;96171.13;;;15.01;69.13
71392;BME280;59205;50.610;12.638;2022-07-15T07:53:03;96164.06;;;15.09;69.18
71392;BME280;59205;50.610;12.638;2022-07-15T07:55:29;96169.72;;;14.91;68.31
71392;BME280;59205;50.610;12.638;2022-07-15T07:57:58;96164.16;;;16.09;65.85
71392;BME280;59205;50.610;12.638;2022-07-15T08:00:25;96168.53;;;15.81;66.60
71392;BME280;59205;50.610;12.638;2022-07-15T08:02:52;96159.31;;;15.98;65.04
71392;BME280;59205;50.610;12.638;2022-07-15T08:05:18;96165.94;;;16.63;67.40
71392;BME280;59205;50.610;12.638;2022-07-15T08:07:46;96167.69;;;16.35;66.83
71392;BME280;59205;50.610;12.638;2022-07-15T08:10:13;96165.22;;;16.17;64.58
71392;BME280;59205;50.610;12.638;2022-07-15T08:12:39;96164.06;;;16.74;63.58
71392;BME280;59205;50.610;12.638;2022-07-15T08:15:07;96172.56;;;16.51;66.95
71392;BME280;59205;50.610;12.638;2022-07-15T08:17:34;96164.25;;;15.74;67.90
71392;BME280;59205;50.610;12.638;2022-07-15T08:20:00;96166.06;;;15.83;66.66
71392;BME280;59205;50.610;12.638;2022-07-15T08:22:25;96172.75;;;15.62;67.52
71392;BME280;59205;50.610;12.638;2022-07-15T08:24:51;96164.63;;;15.67;67.61
71392;BME280;59205;50.610;12.638;2022-07-15T08:27:17;96168.81;;;15.43;67.05
71392;BME280;59205;50.610;12.638;2022-07-15T08:29:42;96167.91;;;15.32;67.88
71392;BME280;59205;50.610;12.638;2022-07-15T08:32:08;96161.47;;;15.35;67.07
71392;BME280;59205;50.610;12.638;2022-07-15T08:34:34;96165.06;;;15.26;66.98
71392;BME280;59205;50.610;12.638;2022-07-15T08:37:00;96161.28;;;15.78;67.38
71392;BME280;59205;50.610;12.638;2022-07-15T08:39:25;96163.47;;;15.94;64.81
71392;BME280;59205;50.610;12.638;2022-07-15T08:41:52;96161.50;;;16.40;63.72
71392;BME280;59205;50.610;12.638;2022-07-15T08:44:17;96174.94;;;16.94;63.95
71392;BME280;59205;50.610;12.638;2022-07-15T08:46:47;96171.13;;;16.86;61.54
71392;BME280;59205;50.610;12.638;2022-07-15T08:49:14;96174.34;;;16.54;62.92
71392;BME280;59205;50.610;12.638;2022-07-15T08:51:43;96171.31;;;17.44;60.74
71392;BME280;59205;50.610;12.638;2022-07-15T08:54:10;96168.44;;;16.92;62.19
71392;BME280;59205;50.610;12.638;2022-07-15T08:56:35;96161.69;;;15.51;63.69
71392;BME280;59205;50.610;12.638;2022-07-15T08:59:03;96164.44;;;16.16;63.71
71392;BME280;59205;50.610;12.638;2022-07-15T09:01:29;96167.25;;;15.96;64.39
71392;BME280;59205;50.610;12.638;2022-07-15T09:03:55;96170.69;;;15.37;65.56
71392;BME280;59205;50.610;12.638;2022-07-15T09:09:34;96172.00;;;15.42;64.56
71392;BME280;59205;50.610;12.638;2022-07-15T09:12:10;96169.09;;;16.30;65.58
71392;BME280;59205;50.610;12.638;2022-07-15T09:14:38;96173.34;;;16.82;62.58
71392;BME280;59205;50.610;12.638;2022-07-15T09:20:05;96163.72;;;17.28;62.86
71392;BME280;59205;50.610;12.638;2022-07-15T09:22:55;96163.81;;;18.67;58.47
71392;BME280;59205;50.610;12.638;2022-07-15T09:25:22;96163.28;;;17.83;59.01
71392;BME280;59205;50.610;12.638;2022-07-15T09:27:48;96165.59;;;17.42;57.92
71392;BME280;59205;50.610;12.638;2022-07-15T09:30:16;96168.34;;;16.81;57.93
71392;BME280;59205;50.610;12.638;2022-07-15T09:33:04;96168.22;;;17.31;59.25
71392;BME280;59205;50.610;12.638;2022-07-15T09:35:48;96169.16;;;18.12;58.42
71392;BME280;59205;50.610;12.638;2022-07-15T09:38:36;96166.91;;;18.11;58.30
71392;BME280;59205;50.610;12.638;2022-07-15T09:41:07;96162.31;;;17.86;55.95
71392;BME280;59205;50.610;12.638;2022-07-15T09:43:47;96167.41;;;17.56;58.25
71392;BME280;59205;50.610;12.638;2022-07-15T09:46:15;96161.19;;;17.56;57.17
71392;BME280;59205;50.610;12.638;2022-07-15T09:48:43;96163.19;;;16.88;57.83
71392;BME280;59205;50.610;12.638;2022-07-15T09:51:09;96162.16;;;16.55;59.45
71392;BME280;59205;50.610;12.638;2022-07-15T09:53:36;96169.34;;;16.32;60.20
71392;BME280;59205;50.610;12.638;2022-07-15T09:56:05;96171.28;;;16.72;60.22
71392;BME280;59205;50.610;12.638;2022-07-15T09:58:31;96164.75;;;16.38;62.76
71392;BME280;59205;50.610;12.638;2022-07-15T10:00:57;96165.97;;;16.94;61.57
71392;BME280;59205;50.610;12.638;2022-07-15T10:03:22;96161.91;;;17.15;61.05
71392;BME280;59205;50.610;12.638;2022-07-15T10:05:52;96157.97;;;17.57;62.28
71392;BME280;59205;50.610;12.638;2022-07-15T10:08:19;96155.31;;;17.01;60.96
71392;BME280;59205;50.610;12.638;2022-07-15T10:10:45;96161.75;;;16.98;63.03
71392;BME280;59205;50.610;12.638;2022-07-15T10:13:39;96164.44;;;17.23;61.06
71392;BME280;59205;50.610;12.638;2022-07-15T10:16:33;96156.25;;;16.93;62.92
71392;BME280;59205;50.610;12.638;2022-07-15T10:19:50;96151.78;;;16.95;61.69
71392;BME280;59205;50.610;12.638;2022-07-15T10:25:44;96161.41;;;18.16;58.81
71392;BME280;59205;50.610;12.638;2022-07-15T10:28:24;96159.91;;;18.04;57.39
71392;BME280;59205;50.610;12.638;2022-07-15T10:31:15;96156.28;;;17.71;58.68
71392;BME280;59205;50.610;12.638;2022-07-15T10:33:41;96151.50;;;17.24;58.29
71392;BME280;59205;50.610;12.638;2022-07-15T10:36:06;96158.22;;;17.59;57.62
71392;BME280;59205;50.610;12.638;2022-07-15T10:38:36;96160.28;;;17.33;58.47
71392;BME280;59205;50.610;12.638;2022-07-15T10:41:12;96158.84;;;17.07;61.88
71392;BME280;59205;50.610;12.638;2022-07-15T10:48:44;96164.09;;;16.49;62.59
71392;BME280;59205;50.610;12.638;2022-07-15T10:51:10;96154.66;;;16.50;62.67
71392;BME280;59205;50.610;12.638;2022-07-15T10:53:43;96156.38;;;17.45;62.54
71392;BME280;59205;50.610;12.638;2022-07-15T10:56:46;96156.66;;;18.00;58.18
71392;BME280;59205;50.610;12.638;2022-07-15T10:59:21;96153.06;;;18.64;53.12
71392;BME280;59205;50.610;12.638;2022-07-15T11:02:11;96156.09;;;17.96;55.38
71392;BME280;59205;50.610;12.638;2022-07-15T11:04:37;96154.63;;;17.95;56.69
71392;BME280;59205;50.610;12.638;2022-07-15T11:09:48;96148.53;;;19.54;53.88
71392;BME280;59205;50.610;12.638;2022-07-15T11:15:01;96142.69;;;22.94;43.10
71392;BME280;59205;50.610;12.638;2022-07-15T11:20:01;96143.03;;;22.35;47.64
71392;BME280;59205;50.610;12.638;2022-07-15T11:22:35;96131.16;;;21.07;44.65
71392;BME280;59205;50.610;12.638;2022-07-15T11:25:05;96130.41;;;20.37;45.60
71392;BME280;59205;50.610;12.638;2022-07-15T11:27:30;96128.25;;;19.68;49.26
71392;BME280;59205;50.610;12.638;2022-07-15T11:29:58;96138.59;;;19.23;52.59
71392;BME280;59205;50.610;12.638;2022-07-15T11:32:30;96141.75;;;18.23;53.71
71392;BME280;59205;50.610;12.638;2022-07-15T11:34:57;96134.25;;;18.13;53.83
71392;BME280;59205;50.610;12.638;2022-07-15T11:37:28;96137.50;;;17.53;56.12
71392;BME280;59205;50.610;12.638;2022-07-15T11:40:15;96141.44;;;17.46;54.78
71392;BME280;59205;50.610;12.638;2022-07-15T11:43:01;96146.63;;;17.03;58.17
71392;BME280;59205;50.610;12.638;2022-07-15T11:45:48;96135.72;;;18.08;52.51
71392;BME280;59205;50.610;12.638;2022-07-15T11:48:14;96137.88;;;17.82;55.72
71392;BME280;59205;50.610;12.638;2022-07-15T11:50:51;96139.22;;;18.14;56.75
71392;BME280;59205;50.610;12.638;2022-07-15T11:53:17;96136.78;;;20.62;55.44
71392;BME280;59205;50.610;12.638;2022-07-15T11:55:58;96131.09;;;18.86;53.45
71392;BME280;59205;50.610;12.638;2022-07-15T11:58:35;96127.59;;;19.07;51.46
71392;BME280;59205;50.610;12.638;2022-07-15T12:01:10;96132.19;;;19.78;47.53
71392;BME280;59205;50.610;12.638;2022-07-15T12:03:41;96122.88;;;20.78;48.93
71392;BME280;59205;50.610;12.638;2022-07-15T12:06:18;96130.91;;;21.11;50.12
71392;BME280;59205;50.610;12.638;2022-07-15T12:08:48;96135.22;;;21.78;47.86
71392;BME280;59205;50.610;12.638;2022-07-15T12:11:25;96117.22;;;20.65;46.88
71392;BME280;59205;50.610;12.638;2022-07-15T12:13:55;96120.72;;;21.00;45.47
71392;BME280;59205;50.610;12.638;2022-07-15T12:16:56;96110.00;;;20.91;48.41
71392;BME280;59205;50.610;12.638;2022-07-15T12:19:24;96111.22;;;19.64;46.91
71392;BME280;59205;50.610;12.638;2022-07-15T12:21:56;96114.88;;;18.60;50.51
71392;BME280;59205;50.610;12.638;2022-07-15T12:24:24;96122.84;;;19.24;48.56
71392;BME280;59205;50.610;12.638;2022-07-15T12:29:18;96118.59;;;20.02;52.61
71392;BME280;59205;50.610;12.638;2022-07-15T12:31:58;96115.69;;;19.78;50.39
71392;BME280;59205;50.610;12.638;2022-07-15T12:34:46;96116.56;;;19.45;48.35
71392;BME280;59205;50.610;12.638;2022-07-15T12:37:08;96115.81;;;20.13;46.73
71392;BME280;59205;50.610;12.638;2022-07-15T12:39:53;96111.50;;;20.92;48.89
71392;BME280;59205;50.610;12.638;2022-07-15T12:42:18;96105.66;;;20.72;45.73
71392;BME280;59205;50.610;12.638;2022-07-15T12:44:44;96111.34;;;20.45;45.24
71392;BME280;59205;50.610;12.638;2022-07-15T12:47:09;96105.09;;;19.98;45.58
71392;BME280;59205;50.610;12.638;2022-07-15T12:49:48;96101.59;;;19.13;47.18
71392;BME280;59205;50.610;12.638;2022-07-15T12:54:43;96111.13;;;18.91;47.80
71392;BME280;59205;50.610;12.638;2022-07-15T13:00:04;96118.09;;;19.24;49.04
71392;BME280;59205;50.610;12.638;2022-07-15T13:02:30;96110.44;;;19.74;46.25
71392;BME280;59205;50.610;12.638;2022-07-15T13:04:57;96112.13;;;18.93;47.35
71392;BME280;59205;50.610;12.638;2022-07-15T13:07:23;96112.06;;;20.85;48.64
71392;BME280;59205;50.610;12.638;2022-07-15T13:09:48;96110.78;;;21.16;44.00
71392;BME280;59205;50.610;12.638;2022-07-15T13:12:16;96094.59;;;20.43;48.55
71392;BME280;59205;50.610;12.638;2022-07-15T13:14:46;96098.38;;;19.88;49.99
71392;BME280;59205;50.610;12.638;2022-07-15T13:17:12;96105.78;;;19.47;47.84
71392;BME280;59205;50.610;12.638;2022-07-15T13:19:38;96102.28;;;19.52;50.86
71392;BME280;59205;50.610;12.638;2022-07-15T13:22:04;96104.38;;;18.97;47.37
71392;BME280;59205;50.610;12.638;2022-07-15T13:24:29;96103.88;;;18.71;48.04